createdAt,value
2024-02-01T00:02:17.265Z,66.10
2024-02-01T00:04:44.254Z,66.10
2024-02-01T00:07:11.359Z,66.20
2024-02-01T00:09:38.243Z,66.30
2024-02-01T00:12:05.654Z,66.20
2024-02-01T00:14:32.575Z,66.30
2024-02-01T00:16:59.461Z,66.40
2024-02-01T00:19:27.249Z,66.30
2024-02-01T00:21:54.267Z,66.40
2024-02-01T00:24:21.239Z,66.50
2024-02-01T00:26:48.824Z,66.60
2024-02-01T00:29:15.832Z,66.60
2024-02-01T00:31:42.715Z,66.70
2024-02-01T00:34:09.656Z,66.80
2024-02-01T00:36:36.567Z,66.80
2024-02-01T00:39:03.707Z,66.80
2024-02-01T00:41:30.801Z,66.70
2024-02-01T00:43:57.664Z,66.70
2024-02-01T00:46:24.618Z,66.80
2024-02-01T00:48:51.761Z,66.80
2024-02-01T00:51:18.898Z,66.80
2024-02-01T00:53:45.966Z,66.90
2024-02-01T00:56:13.038Z,67.00
2024-02-01T00:58:39.934Z,67.00
2024-02-01T01:01:07.034Z,67.10
2024-02-01T01:03:34.407Z,67.10
2024-02-01T01:06:01.561Z,67.20
2024-02-01T01:08:29.246Z,67.30
2024-02-01T01:10:56.103Z,67.40
2024-02-01T01:13:23.017Z,67.50
2024-02-01T01:15:50.112Z,67.40
2024-02-01T01:18:17.201Z,67.50
2024-02-01T01:20:44.432Z,67.40
2024-02-01T01:23:11.299Z,67.40
2024-02-01T01:25:38.150Z,67.30
2024-02-01T01:28:05.435Z,67.40
2024-02-01T01:30:32.324Z,67.40
2024-02-01T01:32:59.247Z,67.50
2024-02-01T01:35:26.194Z,67.60
2024-02-01T01:37:53.103Z,67.60
2024-02-01T01:40:20.188Z,67.70
2024-02-01T01:42:47.341Z,67.60
2024-02-01T01:45:14.755Z,67.70
2024-02-01T01:47:41.954Z,67.70
2024-02-01T01:50:09.544Z,67.60
2024-02-01T01:52:37.618Z,67.70
2024-02-01T01:55:07.881Z,67.70
2024-02-01T01:57:39.625Z,67.70
2024-02-01T02:00:08.638Z,67.70
2024-02-01T02:02:36.414Z,67.60
2024-02-01T02:05:03.541Z,67.70
2024-02-01T02:07:30.416Z,67.70
2024-02-01T02:10:02.087Z,67.70
2024-02-01T02:12:29.386Z,67.80
2024-02-01T02:15:05.789Z,67.80
2024-02-01T02:17:32.641Z,67.80
2024-02-01T02:20:17.150Z,67.80
2024-02-01T02:22:53.806Z,67.80
2024-02-01T02:25:22.162Z,67.80
2024-02-01T02:27:49.288Z,67.80
2024-02-01T02:30:18.309Z,67.90
2024-02-01T02:32:46.012Z,68.00
2024-02-01T02:35:14.156Z,67.90
2024-02-01T02:37:55.513Z,68.00
2024-02-01T02:40:23.594Z,68.10
2024-02-01T02:42:51.202Z,68.10
2024-02-01T02:45:18.836Z,68.10
2024-02-01T02:47:49.867Z,68.10
2024-02-01T02:50:17.537Z,68.10
2024-02-01T02:52:45.594Z,68.20
2024-02-01T02:55:12.884Z,68.10
2024-02-01T02:57:41.119Z,68.20
2024-02-01T03:00:11.475Z,68.20
2024-02-01T03:02:39.487Z,68.20
2024-02-01T03:05:07.773Z,68.20
2024-02-01T03:07:35.137Z,68.20
2024-02-01T03:10:05.828Z,68.20
2024-02-01T03:12:33.001Z,68.20
2024-02-01T03:15:00.358Z,68.20
2024-02-01T03:17:27.694Z,68.20
2024-02-01T03:19:55.257Z,68.20
2024-02-01T03:22:24.141Z,68.10
2024-02-01T03:25:00.081Z,68.00
2024-02-01T03:27:27.534Z,68.10
2024-02-01T03:29:54.547Z,68.00
2024-02-01T03:32:21.478Z,68.00
2024-02-01T03:34:48.512Z,68.00
2024-02-01T03:37:16.284Z,68.00
2024-02-01T03:39:43.662Z,67.90
2024-02-01T03:42:11.286Z,67.90
2024-02-01T03:44:41.263Z,67.90
2024-02-01T03:47:11.105Z,67.80
2024-02-01T03:49:42.404Z,67.90
2024-02-01T03:52:10.047Z,67.80
2024-02-01T03:54:37.955Z,67.80
2024-02-01T03:57:05.309Z,67.70
2024-02-01T03:59:33.835Z,67.70
2024-02-01T04:02:05.814Z,67.60
2024-02-01T04:04:33.419Z,67.60
2024-02-01T04:07:01.398Z,67.50
2024-02-01T04:09:28.563Z,67.50
2024-02-01T04:11:55.902Z,67.50
2024-02-01T04:14:23.150Z,67.40
2024-02-01T04:16:50.159Z,67.40
2024-02-01T04:19:17.444Z,67.40
2024-02-01T04:21:48.941Z,67.40
2024-02-01T04:24:18.102Z,67.30
2024-02-01T04:26:45.472Z,67.30
2024-02-01T04:29:12.472Z,67.20
2024-02-01T04:31:39.345Z,67.20
2024-02-01T04:34:06.637Z,67.20
2024-02-01T04:36:33.938Z,67.10
2024-02-01T04:39:04.694Z,67.10
2024-02-01T04:41:31.982Z,67.00
2024-02-01T04:43:59.715Z,67.00
2024-02-01T04:46:26.879Z,67.00
2024-02-01T04:48:53.953Z,66.90
2024-02-01T04:51:20.917Z,66.90
2024-02-01T04:53:47.809Z,66.90
2024-02-01T04:56:15.112Z,66.80
2024-02-01T04:58:42.844Z,66.80
2024-02-01T05:01:11.817Z,66.80
2024-02-01T05:03:39.614Z,66.70
2024-02-01T05:06:09.905Z,66.70
2024-02-01T05:08:37.630Z,66.70
2024-02-01T05:11:05.868Z,66.60
2024-02-01T05:13:32.918Z,66.60
2024-02-01T05:16:00.982Z,66.50
2024-02-01T05:18:28.514Z,66.40
2024-02-01T05:20:55.826Z,66.40
2024-02-01T05:23:22.974Z,66.40
2024-02-01T05:25:49.890Z,66.40
2024-02-01T05:28:16.782Z,66.40
2024-02-01T05:30:43.981Z,66.40
2024-02-01T05:33:11.237Z,66.40
2024-02-01T05:35:38.362Z,66.40
2024-02-01T05:38:08.150Z,66.40
2024-02-01T05:40:38.348Z,66.40
2024-02-01T05:43:14.145Z,66.40
2024-02-01T05:45:41.113Z,66.40
2024-02-01T05:48:13.594Z,66.50
2024-02-01T05:50:41.763Z,66.40
2024-02-01T05:53:10.886Z,66.30
2024-02-01T05:55:37.853Z,66.30
2024-02-01T05:58:06.925Z,66.30
2024-02-01T06:00:34.134Z,66.30
2024-02-01T06:03:01.240Z,66.30
2024-02-01T06:05:29.047Z,66.30
2024-02-01T06:07:56.022Z,66.30
2024-02-01T06:10:22.948Z,66.20
2024-02-01T06:12:50.079Z,66.30
2024-02-01T06:18:09.535Z,66.30
2024-02-01T06:20:36.507Z,66.30
2024-02-01T06:23:03.558Z,66.20
2024-02-01T06:25:31.145Z,66.20
2024-02-01T06:27:59.008Z,66.20
2024-02-01T06:30:26.754Z,66.20
2024-02-01T06:32:53.848Z,66.20
2024-02-01T06:35:23.562Z,66.20
2024-02-01T06:38:05.583Z,66.20
2024-02-01T06:40:39.166Z,66.20
2024-02-01T06:43:28.950Z,66.20
2024-02-01T06:46:24.403Z,66.20
2024-02-01T06:49:11.439Z,66.10
2024-02-01T06:51:41.664Z,66.10
2024-02-01T06:54:18.652Z,66.20
2024-02-01T06:56:54.073Z,66.20
2024-02-01T06:59:45.155Z,66.30
2024-02-01T07:02:38.247Z,66.20
2024-02-01T07:05:22.568Z,66.10
2024-02-01T07:07:51.558Z,66.20
2024-02-01T07:10:21.060Z,66.20
2024-02-01T07:13:04.852Z,66.10
2024-02-01T07:15:33.204Z,66.20
2024-02-01T07:18:08.884Z,66.10
2024-02-01T07:20:52.637Z,66.10
2024-02-01T07:23:26.043Z,66.10
2024-02-01T07:26:17.645Z,66.10
2024-02-01T07:29:03.530Z,66.10
2024-02-01T07:31:48.925Z,66.10
2024-02-01T07:34:34.320Z,66.10
2024-02-01T07:37:19.734Z,66.00
2024-02-01T07:40:05.000Z,66.00
2024-02-01T07:42:53.448Z,66.00
2024-02-01T07:45:38.794Z,66.00
2024-02-01T07:48:24.450Z,65.90
2024-02-01T07:51:09.993Z,65.80
2024-02-01T07:53:55.514Z,65.80
2024-02-01T07:56:41.066Z,65.70
2024-02-01T07:59:13.791Z,65.70
2024-02-01T08:02:00.612Z,65.60
2024-02-01T08:04:46.191Z,65.50
2024-02-01T08:07:32.582Z,65.40
2024-02-01T08:10:01.190Z,65.30
2024-02-01T08:12:34.961Z,65.20
2024-02-01T08:15:08.624Z,65.10
2024-02-01T08:17:38.011Z,65.00
2024-02-01T08:20:13.181Z,64.90
2024-02-01T08:22:42.596Z,64.80
2024-02-01T08:25:10.896Z,64.70
2024-02-01T08:27:37.853Z,64.60
2024-02-01T08:30:15.158Z,64.50
2024-02-01T08:32:45.619Z,64.50
2024-02-01T08:35:13.806Z,64.50
2024-02-01T08:37:44.516Z,64.40
2024-02-01T08:40:19.202Z,64.30
2024-02-01T08:42:51.001Z,64.30
2024-02-01T08:45:19.086Z,64.30
2024-02-01T08:47:46.553Z,64.20
2024-02-01T08:50:15.026Z,64.10
2024-02-01T08:52:48.657Z,64.00
2024-02-01T08:55:17.725Z,64.00
2024-02-01T08:57:46.089Z,63.90
2024-02-01T09:00:27.851Z,63.80
2024-02-01T09:03:05.052Z,63.80
2024-02-01T09:05:39.928Z,63.80
2024-02-01T09:08:10.040Z,63.70
2024-02-01T09:10:38.471Z,63.70
2024-02-01T09:13:06.007Z,63.70
2024-02-01T09:15:33.422Z,63.70
2024-02-01T09:18:00.560Z,63.70
2024-02-01T09:20:27.439Z,63.80
2024-02-01T09:22:56.646Z,63.60
2024-02-01T09:25:25.855Z,63.50
2024-02-01T09:27:55.734Z,63.40
2024-02-01T09:30:25.097Z,63.30
2024-02-01T09:32:54.884Z,63.10
2024-02-01T09:35:23.815Z,63.10
2024-02-01T09:37:54.591Z,63.00
2024-02-01T09:40:22.795Z,62.80
2024-02-01T09:42:50.912Z,62.70
2024-02-01T09:45:20.839Z,62.70
2024-02-01T09:47:49.251Z,62.60
2024-02-01T09:50:21.064Z,62.50
2024-02-01T09:52:50.439Z,62.50
2024-02-01T09:55:19.391Z,62.40
2024-02-01T09:57:48.560Z,62.40
2024-02-01T10:00:19.918Z,62.30
2024-02-01T10:02:50.543Z,62.20
2024-02-01T10:05:17.578Z,62.30
2024-02-01T10:07:45.294Z,62.30
2024-02-01T10:10:15.325Z,62.20
2024-02-01T10:12:43.005Z,62.10
2024-02-01T10:15:13.992Z,62.10
2024-02-01T10:17:48.758Z,61.90
2024-02-01T10:20:35.033Z,61.90
2024-02-01T10:23:05.760Z,61.80
2024-02-01T10:25:46.153Z,61.70
2024-02-01T10:28:21.399Z,61.70
2024-02-01T10:30:50.433Z,61.70
2024-02-01T10:33:19.206Z,61.70
2024-02-01T10:35:52.523Z,61.70
2024-02-01T10:38:24.965Z,61.60
2024-02-01T10:40:52.000Z,61.60
2024-02-01T10:43:22.478Z,61.50
2024-02-01T10:46:12.528Z,61.40
2024-02-01T10:49:20.945Z,61.30
2024-02-01T10:51:50.834Z,61.20
2024-02-01T10:54:19.767Z,61.30
2024-02-01T10:56:47.844Z,61.20
2024-02-01T10:59:18.599Z,61.20
2024-02-01T11:01:47.013Z,61.10
2024-02-01T11:04:15.973Z,60.90
2024-02-01T11:06:50.816Z,60.90
2024-02-01T11:09:26.962Z,60.70
2024-02-01T11:11:56.629Z,60.60
2024-02-01T11:14:30.744Z,60.50
2024-02-01T11:17:00.089Z,60.40
2024-02-01T11:19:36.974Z,60.10
2024-02-01T11:22:07.964Z,60.00
2024-02-01T11:24:38.585Z,59.90
2024-02-01T11:27:28.985Z,59.80
2024-02-01T11:30:02.369Z,59.60
2024-02-01T11:32:34.551Z,59.50
2024-02-01T11:35:03.088Z,59.40
2024-02-01T11:37:30.487Z,59.40
2024-02-01T11:39:57.571Z,59.40
2024-02-01T11:42:32.257Z,59.30
2024-02-01T11:45:02.652Z,59.10
2024-02-01T11:47:31.508Z,59.20
2024-02-01T11:49:58.769Z,59.20
2024-02-01T11:52:45.289Z,59.10
2024-02-01T11:55:13.125Z,59.10
2024-02-01T11:57:52.019Z,59.20
2024-02-01T12:00:32.044Z,59.10
2024-02-01T12:03:07.128Z,59.20
2024-02-01T12:05:34.637Z,59.10
2024-02-01T12:08:04.718Z,59.10
2024-02-01T12:10:35.256Z,59.10
2024-02-01T12:13:03.977Z,59.10
2024-02-01T12:15:30.935Z,59.20
2024-02-01T12:18:00.405Z,59.10
2024-02-01T12:20:34.797Z,59.00
2024-02-01T12:23:03.897Z,59.00
2024-02-01T12:25:34.150Z,58.90
2024-02-01T12:28:01.624Z,58.80
2024-02-01T12:30:30.189Z,58.70
2024-02-01T12:32:57.362Z,58.60
2024-02-01T12:35:24.927Z,58.50
2024-02-01T12:37:51.868Z,58.40
2024-02-01T12:40:19.128Z,58.50
2024-02-01T12:42:50.351Z,58.40
2024-02-01T12:45:21.912Z,58.20
2024-02-01T12:47:50.113Z,58.10
2024-02-01T12:50:17.513Z,58.30
2024-02-01T12:52:44.920Z,58.40
2024-02-01T12:55:12.453Z,58.30
2024-02-01T12:57:41.041Z,58.30
2024-02-01T13:00:12.058Z,58.30
2024-02-01T13:02:40.112Z,58.30
2024-02-01T13:05:11.909Z,58.40
2024-02-01T13:07:39.586Z,58.40
2024-02-01T13:10:10.024Z,58.30
2024-02-01T13:12:37.666Z,58.20
2024-02-01T13:15:07.165Z,58.20
2024-02-01T13:17:35.761Z,58.20
2024-02-01T13:20:19.844Z,58.30
2024-02-01T13:22:48.050Z,58.40
2024-02-01T13:25:21.854Z,58.40
2024-02-01T13:27:54.354Z,58.40
2024-02-01T13:30:24.166Z,58.40
2024-02-01T13:32:52.456Z,58.40
2024-02-01T13:35:19.617Z,58.00
2024-02-01T13:37:49.954Z,58.00
2024-02-01T13:40:17.975Z,58.00
2024-02-01T13:42:46.648Z,57.70
2024-02-01T13:45:14.146Z,57.40
2024-02-01T13:47:51.629Z,57.50
2024-02-01T13:50:27.574Z,57.50
2024-02-01T13:52:58.015Z,57.60
2024-02-01T13:55:26.327Z,57.60
2024-02-01T13:57:55.853Z,57.60
2024-02-01T14:00:24.304Z,57.60
2024-02-01T14:02:54.210Z,57.60
2024-02-01T14:05:30.306Z,57.60
2024-02-01T14:08:01.513Z,57.60
2024-02-01T14:10:33.710Z,57.50
2024-02-01T14:13:04.519Z,57.50
2024-02-01T14:15:38.061Z,57.40
2024-02-01T14:18:08.773Z,57.30
2024-02-01T14:20:36.622Z,57.30
2024-02-01T14:23:06.843Z,57.30
2024-02-01T14:25:37.250Z,57.30
2024-02-01T14:28:05.442Z,57.30
2024-02-01T14:30:37.714Z,57.30
2024-02-01T14:33:12.974Z,57.40
2024-02-01T14:35:42.092Z,57.40
2024-02-01T14:38:40.121Z,57.50
2024-02-01T14:41:16.201Z,57.50
2024-02-01T14:43:48.039Z,57.60
2024-02-01T14:46:22.071Z,57.70
2024-02-01T14:48:54.960Z,57.70
2024-02-01T14:51:27.195Z,57.70
2024-02-01T14:53:57.140Z,57.70
2024-02-01T14:56:24.337Z,57.60
2024-02-01T14:58:51.686Z,57.60
2024-02-01T15:01:20.641Z,57.40
2024-02-01T15:03:53.884Z,57.10
2024-02-01T15:06:26.298Z,56.80
2024-02-01T15:09:04.915Z,56.60
2024-02-01T15:11:33.714Z,56.50
2024-02-01T15:14:01.665Z,56.60
2024-02-01T15:16:34.244Z,56.50
2024-02-01T15:19:33.610Z,56.40
2024-02-01T15:22:03.599Z,56.40
2024-02-01T15:24:31.496Z,56.30
2024-02-01T15:26:58.794Z,56.10
2024-02-01T15:29:25.936Z,56.20
2024-02-01T15:31:53.150Z,56.30
2024-02-01T15:34:20.720Z,56.40
2024-02-01T15:36:47.889Z,56.60
2024-02-01T15:39:18.505Z,56.80
2024-02-01T15:41:46.436Z,56.90
2024-02-01T15:44:14.753Z,56.90
2024-02-01T15:46:41.775Z,57.00
2024-02-01T15:49:12.488Z,57.00
2024-02-01T15:51:39.552Z,56.90
2024-02-01T15:54:06.499Z,56.80
2024-02-01T15:56:33.443Z,56.80
2024-02-01T15:59:00.702Z,56.70
2024-02-01T16:01:27.955Z,56.70
2024-02-01T16:03:55.697Z,56.80
2024-02-01T16:06:23.181Z,57.10
2024-02-01T16:08:52.263Z,57.30
2024-02-01T16:11:21.494Z,57.50
2024-02-01T16:13:58.635Z,57.60
2024-02-01T16:16:38.809Z,57.50
2024-02-01T16:19:17.215Z,57.30
2024-02-01T16:21:44.346Z,57.20
2024-02-01T16:24:12.682Z,57.30
2024-02-01T16:26:40.735Z,57.50
2024-02-01T16:29:13.588Z,57.70
2024-02-01T16:31:40.648Z,57.90
2024-02-01T16:34:41.576Z,57.90
2024-02-01T16:37:09.233Z,58.00
2024-02-01T16:39:48.136Z,58.00
2024-02-01T16:42:32.630Z,58.10
2024-02-01T16:45:01.244Z,58.10
2024-02-01T16:47:51.001Z,58.20
2024-02-01T16:50:40.084Z,58.20
2024-02-01T16:53:11.511Z,58.30
2024-02-01T16:55:43.559Z,58.30
2024-02-01T16:58:39.585Z,58.40
2024-02-01T17:01:15.573Z,58.40
2024-02-01T17:03:43.144Z,58.50
2024-02-01T17:06:12.969Z,58.60
2024-02-01T17:08:51.444Z,58.60
2024-02-01T17:11:26.435Z,58.70
2024-02-01T17:13:54.808Z,58.80
2024-02-01T17:16:44.172Z,58.90
2024-02-01T17:19:15.059Z,59.00
2024-02-01T17:21:42.752Z,59.10
2024-02-01T17:24:10.077Z,59.20
2024-02-01T17:26:39.847Z,59.40
2024-02-01T17:29:06.813Z,59.50
2024-02-01T17:31:34.903Z,59.70
2024-02-01T17:34:23.241Z,60.00
2024-02-01T17:36:50.837Z,60.10
2024-02-01T17:39:35.652Z,60.30
2024-02-01T17:42:09.065Z,60.40
2024-02-01T17:44:40.726Z,60.60
2024-02-01T17:47:08.013Z,60.80
2024-02-01T17:49:45.714Z,61.00
2024-02-01T17:52:41.393Z,61.10
2024-02-01T17:55:38.075Z,61.30
2024-02-01T17:58:41.252Z,61.40
2024-02-01T18:01:22.394Z,61.50
2024-02-01T18:03:55.081Z,61.60
2024-02-01T18:06:42.203Z,61.70
2024-02-01T18:09:18.946Z,61.80
2024-02-01T18:11:51.901Z,61.80
2024-02-01T18:14:19.227Z,62.00
2024-02-01T18:16:46.290Z,62.00
2024-02-01T18:19:23.541Z,62.10
2024-02-01T18:21:51.445Z,62.20
2024-02-01T18:24:42.018Z,62.20
2024-02-01T18:27:18.934Z,62.40
2024-02-01T18:29:59.991Z,62.40
2024-02-01T18:32:38.023Z,62.50
2024-02-01T18:35:17.428Z,62.50
2024-02-01T18:37:45.224Z,62.60
2024-02-01T18:40:21.832Z,62.60
2024-02-01T18:43:10.613Z,62.70
2024-02-01T18:45:44.544Z,62.80
2024-02-01T18:48:26.846Z,62.90
2024-02-01T18:50:55.979Z,62.90
2024-02-01T18:53:44.447Z,62.90
2024-02-01T18:56:31.934Z,63.00
2024-02-01T18:58:59.381Z,63.00
2024-02-01T19:01:34.272Z,63.10
2024-02-01T19:04:06.433Z,63.10
2024-02-01T19:06:38.102Z,63.30
2024-02-01T19:09:29.360Z,63.30
2024-02-01T19:12:04.203Z,63.40
2024-02-01T19:14:34.682Z,63.40
2024-02-01T19:17:21.034Z,63.40
2024-02-01T19:19:49.621Z,63.60
2024-02-01T19:22:40.070Z,63.60
2024-02-01T19:25:12.712Z,63.70
2024-02-01T19:27:41.728Z,63.60
2024-02-01T19:30:23.573Z,63.70
2024-02-01T19:32:52.767Z,63.80
2024-02-01T19:35:31.642Z,63.80
2024-02-01T19:38:04.068Z,63.80
2024-02-01T19:40:32.469Z,63.80
2024-02-01T19:42:59.881Z,63.90
2024-02-01T19:45:27.296Z,63.90
2024-02-01T19:47:54.970Z,63.90
2024-02-01T19:50:21.973Z,63.90
2024-02-01T19:52:48.881Z,63.90
2024-02-01T19:55:15.869Z,64.00
2024-02-01T19:57:42.975Z,64.00
2024-02-01T20:00:10.533Z,64.00
2024-02-01T20:02:43.619Z,64.10
2024-02-01T20:05:10.953Z,64.00
2024-02-01T20:07:38.022Z,64.10
2024-02-01T20:10:05.838Z,64.20
2024-02-01T20:12:33.056Z,64.20
2024-02-01T20:15:00.558Z,64.30
2024-02-01T20:17:27.942Z,64.30
2024-02-01T20:19:55.710Z,64.30
2024-02-01T20:22:23.097Z,64.30
2024-02-01T20:24:50.372Z,64.30
2024-02-01T20:27:20.947Z,64.30
2024-02-01T20:29:51.592Z,64.40
2024-02-01T20:32:19.435Z,64.40
2024-02-01T20:34:47.390Z,64.50
2024-02-01T20:37:18.523Z,64.50
2024-02-01T20:39:47.416Z,64.60
2024-02-01T20:42:23.277Z,64.60
2024-02-01T20:44:52.346Z,64.60
2024-02-01T20:47:30.492Z,64.60
2024-02-01T20:49:58.372Z,64.70
2024-02-01T20:52:28.431Z,64.70
2024-02-01T20:55:13.766Z,64.80
2024-02-01T20:57:41.584Z,64.90
2024-02-01T21:00:25.908Z,64.90
2024-02-01T21:02:53.544Z,64.90
2024-02-01T21:05:48.531Z,64.90
2024-02-01T21:08:45.000Z,64.90
2024-02-01T21:11:40.983Z,65.00
2024-02-01T21:14:29.387Z,65.10
2024-02-01T21:16:56.914Z,65.10
2024-02-01T21:19:25.821Z,65.20
2024-02-01T21:21:53.779Z,65.20
2024-02-01T21:24:21.209Z,65.30
2024-02-01T21:26:48.178Z,65.30
2024-02-01T21:29:17.935Z,65.40
2024-02-01T21:32:00.568Z,65.40
2024-02-01T21:34:35.801Z,65.50
2024-02-01T21:37:14.488Z,65.40
2024-02-01T21:40:06.240Z,65.50
2024-02-01T21:42:57.351Z,65.50
2024-02-01T21:45:25.813Z,65.50
2024-02-01T21:47:55.377Z,65.60
2024-02-01T21:50:22.890Z,65.60
2024-02-01T21:52:49.998Z,65.60
2024-02-01T21:55:17.158Z,65.60
2024-02-01T21:57:47.141Z,65.60
2024-02-01T22:00:14.483Z,65.70
2024-02-01T22:02:42.765Z,65.60
2024-02-01T22:05:10.683Z,65.70
2024-02-01T22:07:37.805Z,65.70
2024-02-01T22:10:05.351Z,65.70
2024-02-01T22:12:32.222Z,65.70
2024-02-01T22:15:01.074Z,65.80
2024-02-01T22:17:28.473Z,65.70
2024-02-01T22:19:58.622Z,65.60
2024-02-01T22:22:27.056Z,65.60
2024-02-01T22:24:54.141Z,65.60
2024-02-01T22:27:21.069Z,65.60
2024-02-01T22:29:48.108Z,65.60
2024-02-01T22:32:18.470Z,65.60
2024-02-01T22:34:46.344Z,65.60
2024-02-01T22:37:13.425Z,65.60
2024-02-01T22:39:40.580Z,65.70
2024-02-01T22:42:10.438Z,65.60
2024-02-01T22:44:37.919Z,65.70
2024-02-01T22:47:05.134Z,65.70
2024-02-01T22:49:32.431Z,65.80
2024-02-01T22:52:00.343Z,65.90
2024-02-01T22:54:28.299Z,65.80
2024-02-01T22:56:55.388Z,65.80
2024-02-01T22:59:22.388Z,65.90
2024-02-01T23:01:49.908Z,66.00
2024-02-01T23:04:18.153Z,65.90
2024-02-01T23:06:45.687Z,65.90
2024-02-01T23:09:13.290Z,66.00
2024-02-01T23:11:40.753Z,66.00
2024-02-01T23:14:07.861Z,66.00
2024-02-01T23:16:36.040Z,66.00
2024-02-01T23:19:03.034Z,66.00
2024-02-01T23:21:30.157Z,66.00
2024-02-01T23:23:57.894Z,66.00
2024-02-01T23:26:26.720Z,66.00
2024-02-01T23:28:53.756Z,66.10
2024-02-01T23:31:20.782Z,66.10
2024-02-01T23:33:48.581Z,66.10
2024-02-01T23:36:16.372Z,66.00
2024-02-01T23:38:43.567Z,66.00
2024-02-01T23:41:10.461Z,66.00
2024-02-01T23:43:37.468Z,66.00
2024-02-01T23:46:04.706Z,66.00
2024-02-01T23:48:31.954Z,66.00
2024-02-01T23:50:58.968Z,66.00
2024-02-01T23:53:28.818Z,66.10
2024-02-01T23:55:55.697Z,66.10
2024-02-01T23:58:22.641Z,66.10
